RJSA

Aomori Airport

Airport
ICAO code
RJSA
IATA Code
AOJ
Summary
ICAO Region
APAC
ICAO Territory
Location

Aomori, Aomori Prefecture

Serving
Aomori
Elevation
650 ft
Coordinates
40° 44' 18" N , 140° 41' 21" E
KCC
Metar
Observation
RJSA 301100Z 22009KT 1600 -SHSN FEW003 SCT010 BKN015 M05/M06 Q1009
Station
Aomori Airport
Date/Time
2023-01-30 11:00:00
Wind direction
220°
Wind speed
09 kts
Lowest cloud amount
few clouds
Temperature
-5°C
Dew point
-6°C
Humidity
92%
QNH
1009 hPa
Weather condition
n/a

Regional airport located 11.2 km south southwest of Aomori, the capital city of Aomori Prefecture in northern Japan.

Climatology

Humid Continental climate (Köppen climate classification Dfa)

Runways

Designator Length Width Surface Rops
6/24 3001 61 ASP Yes/Yes

Airport map

Aerial View

SKYbrary Partners:

Safety knowledge contributed by: